createdAt,value
2022-12-18T00:00:17.774Z,59.9
2022-12-18T00:02:17.846Z,60
2022-12-18T00:04:19.131Z,60.1
2022-12-18T00:06:17.838Z,60.2
2022-12-18T00:08:17.837Z,60.3
2022-12-18T00:10:18.777Z,60.3
2022-12-18T00:14:17.826Z,60.3
2022-12-18T00:16:17.793Z,60.2
2022-12-18T00:18:20.544Z,60.2
2022-12-18T00:20:17.720Z,60.3
2022-12-18T00:22:17.709Z,60.3
2022-12-18T00:24:18.075Z,60.3
2022-12-18T00:26:17.737Z,60.3
2022-12-18T00:27:39.471Z,60.3
2022-12-18T00:28:17.699Z,60.3
2022-12-18T00:30:20.321Z,60.3
2022-12-18T00:33:35.773Z,60.4
2022-12-18T00:34:06.530Z,60.5
2022-12-18T00:36:07.911Z,60.6
2022-12-18T00:38:06.469Z,60.6
2022-12-18T00:40:06.465Z,60.6
2022-12-18T00:42:07.840Z,60.7
2022-12-18T00:44:06.468Z,60.9
2022-12-18T00:46:06.510Z,60.8
2022-12-18T00:48:06.535Z,60.9
2022-12-18T00:50:06.445Z,61
2022-12-18T00:52:06.679Z,61
2022-12-18T00:54:17.450Z,61.1
2022-12-18T00:56:10.612Z,61.1
2022-12-18T00:58:09.050Z,61.1
2022-12-18T01:00:06.500Z,61.2
2022-12-18T01:02:06.641Z,61.3
2022-12-18T01:04:10.807Z,61.3
2022-12-18T01:06:07.897Z,61.3
2022-12-18T01:08:14.332Z,61.4
2022-12-18T01:10:07.909Z,61.4
2022-12-18T01:12:06.429Z,61.5
2022-12-18T01:14:06.404Z,61.7
2022-12-18T01:16:06.465Z,61.6
2022-12-18T01:18:06.397Z,61.7
2022-12-18T01:20:07.702Z,61.7
2022-12-18T01:22:06.478Z,61.7
2022-12-18T01:24:06.475Z,61.7
2022-12-18T01:26:06.471Z,61.7
2022-12-18T01:28:06.443Z,61.8
2022-12-18T01:30:07.885Z,61.8
2022-12-18T01:32:06.428Z,61.8
2022-12-18T01:34:06.361Z,61.9
2022-12-18T01:36:06.370Z,62
2022-12-18T01:38:06.527Z,62.1
2022-12-18T01:40:06.325Z,62.2
2022-12-18T01:42:09.278Z,62.2
2022-12-18T01:44:06.381Z,62.2
2022-12-18T01:46:06.434Z,62.2
2022-12-18T01:48:06.472Z,62.3
2022-12-18T01:50:08.864Z,62.4
2022-12-18T01:52:06.370Z,62.3
2022-12-18T01:54:06.431Z,62.3
2022-12-18T01:56:06.410Z,62.3
2022-12-18T01:58:06.439Z,62.3
2022-12-18T02:00:10.924Z,62.4
2022-12-18T02:02:09.478Z,62.5
2022-12-18T02:04:06.369Z,62.5
2022-12-18T02:06:06.524Z,62.5
2022-12-18T02:08:06.400Z,62.7
2022-12-18T02:10:06.407Z,62.8
2022-12-18T02:12:07.696Z,62.8
2022-12-18T02:14:06.417Z,62.9
2022-12-18T02:16:07.503Z,62.8
2022-12-18T02:18:06.477Z,62.8
2022-12-18T02:20:06.345Z,62.9
2022-12-18T02:22:07.522Z,62.9
2022-12-18T02:24:07.672Z,63.1
2022-12-18T02:26:06.392Z,63.1
2022-12-18T02:26:41.628Z,63.1
2022-12-18T02:28:07.812Z,63.2
2022-12-18T02:30:17.567Z,63.3
2022-12-18T02:30:59.569Z,63.3
2022-12-18T02:32:10.760Z,63.3
2022-12-18T02:34:06.357Z,63.4
2022-12-18T02:36:06.344Z,63.3
2022-12-18T02:38:06.271Z,63.4
2022-12-18T02:40:08.344Z,63.4
2022-12-18T02:42:06.321Z,63.4
2022-12-18T02:44:06.248Z,63.4
2022-12-18T02:46:06.238Z,63.4
2022-12-18T02:48:06.294Z,63.4
2022-12-18T02:50:06.245Z,63.5
2022-12-18T02:52:07.446Z,63.6
2022-12-18T02:54:06.308Z,63.6
2022-12-18T02:56:06.243Z,63.5
2022-12-18T02:58:06.359Z,63.6
2022-12-18T03:00:07.609Z,63.7
2022-12-18T03:02:06.384Z,63.8
2022-12-18T03:04:06.420Z,63.9
2022-12-18T03:06:06.380Z,63.8
2022-12-18T03:08:10.655Z,63.8
2022-12-18T03:10:06.276Z,63.8
2022-12-18T03:12:06.332Z,63.9
2022-12-18T03:14:06.272Z,63.9
2022-12-18T03:16:06.245Z,63.8
2022-12-18T03:18:06.264Z,63.9
2022-12-18T03:20:06.248Z,64
2022-12-18T03:22:06.253Z,64
2022-12-18T03:24:06.274Z,64.1
2022-12-18T03:26:07.756Z,64
2022-12-18T03:28:06.284Z,64.1
2022-12-18T03:30:06.256Z,64.1
2022-12-18T03:32:06.225Z,64.1
2022-12-18T03:34:06.296Z,64.2
2022-12-18T03:36:06.316Z,64.2
2022-12-18T03:38:08.866Z,64.3
2022-12-18T03:40:06.337Z,64.3
2022-12-18T03:42:06.237Z,64.4
2022-12-18T03:44:06.310Z,64.4
2022-12-18T03:46:07.766Z,64.4
2022-12-18T03:48:06.253Z,64.4
2022-12-18T03:50:11.067Z,64.5
2022-12-18T03:52:06.240Z,64.5
2022-12-18T03:54:06.349Z,64.5
2022-12-18T03:56:06.340Z,64.5
2022-12-18T03:58:06.305Z,64.5
2022-12-18T04:00:06.318Z,64.6
2022-12-18T04:02:06.370Z,64.7
2022-12-18T04:04:06.297Z,64.7
2022-12-18T04:06:06.275Z,64.7
2022-12-18T04:08:16.917Z,64.7
2022-12-18T04:10:16.298Z,64.8
2022-12-18T04:12:06.323Z,64.8
2022-12-18T04:14:10.849Z,64.8
2022-12-18T04:16:06.402Z,64.8
2022-12-18T04:18:10.612Z,64.8
2022-12-18T04:20:06.282Z,64.9
2022-12-18T04:22:07.316Z,64.9
2022-12-18T04:24:06.167Z,65
2022-12-18T04:26:06.222Z,65
2022-12-18T04:28:06.199Z,65
2022-12-18T04:30:07.271Z,65
2022-12-18T04:32:07.174Z,65.1
2022-12-18T04:34:13.635Z,65.2
2022-12-18T04:36:06.249Z,65.1
2022-12-18T04:38:06.310Z,65.1
2022-12-18T04:38:41.724Z,65.1
2022-12-18T04:40:06.195Z,65.2
2022-12-18T04:42:17.811Z,65.2
2022-12-18T04:44:10.650Z,65.2
2022-12-18T04:46:06.134Z,65.2
2022-12-18T04:48:06.165Z,65.2
2022-12-18T04:50:06.133Z,65.2
2022-12-18T04:52:08.905Z,65.3
2022-12-18T04:54:06.524Z,65.4
2022-12-18T04:56:06.846Z,65.5
2022-12-18T04:58:06.124Z,65.5
2022-12-18T05:00:06.162Z,65.5
2022-12-18T05:02:06.171Z,65.5
2022-12-18T05:04:06.187Z,65.5
2022-12-18T05:06:06.212Z,65.5
2022-12-18T05:08:06.123Z,65.5
2022-12-18T05:10:06.135Z,65.5
2022-12-18T05:12:06.117Z,65.5
2022-12-18T05:14:06.123Z,65.5
2022-12-18T05:16:06.145Z,65.6
2022-12-18T05:18:06.102Z,65.6
2022-12-18T05:20:06.092Z,65.7
2022-12-18T05:22:06.071Z,65.8
2022-12-18T05:24:06.131Z,65.8
2022-12-18T05:26:06.064Z,65.8
2022-12-18T05:28:06.091Z,65.8
2022-12-18T05:30:06.081Z,65.8
2022-12-18T05:32:07.367Z,65.8
2022-12-18T05:34:06.143Z,65.8
2022-12-18T05:36:07.165Z,65.7
2022-12-18T05:38:06.109Z,65.7
2022-12-18T05:40:06.235Z,65.7
2022-12-18T05:42:06.168Z,65.7
2022-12-18T05:44:06.187Z,65.8
2022-12-18T05:46:06.242Z,65.8
2022-12-18T05:48:08.609Z,65.8
2022-12-18T05:50:07.592Z,65.9
2022-12-18T05:52:06.108Z,65.9
2022-12-18T05:54:08.692Z,66
2022-12-18T05:56:13.770Z,66
2022-12-18T05:58:06.177Z,66
2022-12-18T06:00:06.041Z,66.1
2022-12-18T06:02:10.306Z,66.1
2022-12-18T06:04:06.247Z,66.1
2022-12-18T06:06:06.082Z,66
2022-12-18T06:08:06.020Z,66.1
2022-12-18T06:10:06.162Z,66.1
2022-12-18T06:12:06.060Z,66.2
2022-12-18T06:14:06.021Z,66.3
2022-12-18T06:16:06.045Z,66.2
2022-12-18T06:18:06.060Z,66.2
2022-12-18T06:20:07.138Z,66.3
2022-12-18T06:22:06.118Z,66.3
2022-12-18T06:24:12.029Z,66.4
2022-12-18T06:26:06.046Z,66.3
2022-12-18T06:28:06.055Z,66.3
2022-12-18T06:30:06.109Z,66.4
2022-12-18T06:32:08.478Z,66.5
2022-12-18T06:34:07.590Z,66.6
2022-12-18T06:36:06.590Z,66.4
2022-12-18T06:38:06.014Z,66.4
2022-12-18T06:40:05.981Z,66.4
2022-12-18T06:42:08.756Z,66.4
2022-12-18T06:44:06.032Z,66.4
2022-12-18T06:46:06.148Z,66.4
2022-12-18T06:48:06.022Z,66.4
2022-12-18T06:50:10.461Z,66.5
2022-12-18T06:52:06.067Z,66.5
2022-12-18T06:54:06.005Z,66.6
2022-12-18T06:56:10.097Z,66.5
2022-12-18T06:58:06.003Z,66.6
2022-12-18T07:00:06.210Z,66.7
2022-12-18T07:02:07.393Z,66.7
2022-12-18T07:04:07.119Z,66.7
2022-12-18T07:06:07.445Z,66.7
2022-12-18T07:08:08.843Z,66.8
2022-12-18T07:10:06.039Z,66.8
2022-12-18T07:12:07.239Z,66.7
2022-12-18T07:14:05.936Z,66.7
2022-12-18T07:16:08.588Z,66.7
2022-12-18T07:18:05.973Z,66.7
2022-12-18T07:20:06.102Z,66.8
2022-12-18T07:22:05.947Z,66.8
2022-12-18T07:24:07.374Z,66.8
2022-12-18T07:26:07.215Z,66.7
2022-12-18T07:28:06.025Z,66.7
2022-12-18T07:30:05.969Z,66.8
2022-12-18T07:32:06.011Z,66.9
2022-12-18T07:34:06.973Z,67
2022-12-18T07:36:05.921Z,66.9
2022-12-18T07:38:06.025Z,66.9
2022-12-18T07:40:07.372Z,67
2022-12-18T07:42:05.928Z,67
2022-12-18T07:44:11.600Z,67.1
2022-12-18T07:46:07.051Z,67
2022-12-18T07:48:05.906Z,67.1
2022-12-18T07:50:05.904Z,67
2022-12-18T07:52:08.490Z,67.1
2022-12-18T07:54:13.513Z,67.1
2022-12-18T07:58:07.248Z,67.1
2022-12-18T08:00:05.949Z,67.2
2022-12-18T08:02:06.136Z,67.2
2022-12-18T08:04:08.902Z,67.2
2022-12-18T08:06:05.925Z,67.1
2022-12-18T08:08:07.108Z,67.2
2022-12-18T08:10:05.833Z,67.2
2022-12-18T08:12:05.889Z,67.3
2022-12-18T08:14:05.864Z,67.3
2022-12-18T08:16:05.957Z,67.3
2022-12-18T08:18:09.082Z,67.3
2022-12-18T08:20:08.206Z,67.3
2022-12-18T08:22:05.941Z,67.4
2022-12-18T08:24:05.877Z,67.4
2022-12-18T08:26:05.892Z,67.4
2022-12-18T08:28:08.390Z,67.4
2022-12-18T08:30:05.839Z,67.5
2022-12-18T08:32:05.882Z,67.5
2022-12-18T08:34:05.836Z,67.5
2022-12-18T08:36:05.854Z,67.5
2022-12-18T08:38:07.198Z,67.4
2022-12-18T08:40:06.043Z,67.4
2022-12-18T08:42:09.990Z,67.4
2022-12-18T08:44:05.893Z,67.4
2022-12-18T08:46:05.841Z,67.4
2022-12-18T08:48:05.857Z,67.5
2022-12-18T08:50:08.344Z,67.6
2022-12-18T08:52:05.771Z,67.5
2022-12-18T08:54:06.329Z,67.4
2022-12-18T08:56:05.807Z,67.4
2022-12-18T08:58:05.793Z,67.3
2022-12-18T09:00:05.973Z,67.4
2022-12-18T09:02:05.993Z,67.4
2022-12-18T09:04:05.934Z,67.4
2022-12-18T09:06:05.877Z,67.4
2022-12-18T09:08:05.896Z,67.5
2022-12-18T09:10:05.766Z,67.6
2022-12-18T09:12:06.120Z,67.7
2022-12-18T09:14:05.798Z,67.7
2022-12-18T09:16:05.847Z,67.7
2022-12-18T09:18:05.788Z,67.7
2022-12-18T09:20:05.768Z,67.7
2022-12-18T09:22:05.848Z,67.8
2022-12-18T09:24:08.374Z,67.7
2022-12-18T09:26:05.871Z,67.7
2022-12-18T09:28:06.973Z,67.7
2022-12-18T09:30:05.803Z,67.8
2022-12-18T09:32:16.340Z,67.8
2022-12-18T09:34:06.078Z,67.9
2022-12-18T09:36:17.545Z,67.9
2022-12-18T09:38:05.891Z,67.9
2022-12-18T09:40:07.397Z,67.9
2022-12-18T09:42:05.963Z,68
2022-12-18T09:44:05.804Z,68
2022-12-18T09:46:11.747Z,67.9
2022-12-18T09:48:05.770Z,67.9
2022-12-18T09:50:05.872Z,68
2022-12-18T09:52:07.117Z,68
2022-12-18T09:54:05.856Z,68.1
2022-12-18T09:56:16.210Z,68
2022-12-18T09:58:10.164Z,68.1
2022-12-18T10:00:10.226Z,68.1
2022-12-18T10:02:07.408Z,68.1
2022-12-18T10:04:07.677Z,68.1
2022-12-18T10:06:08.378Z,68.1
2022-12-18T10:08:07.223Z,68.1
2022-12-18T10:09:42.815Z,68.1
2022-12-18T10:10:07.134Z,68.1
2022-12-18T10:12:11.468Z,68
2022-12-18T10:14:16.468Z,68
2022-12-18T10:16:07.093Z,67.9
2022-12-18T10:18:06.585Z,67.9
2022-12-18T10:20:05.745Z,67.9
2022-12-18T10:22:05.728Z,68
2022-12-18T10:24:05.692Z,68
2022-12-18T10:26:05.701Z,67.9
2022-12-18T10:28:05.669Z,67.8
2022-12-18T10:30:05.699Z,68
2022-12-18T10:32:05.667Z,68
2022-12-18T10:34:05.721Z,68
2022-12-18T10:36:05.843Z,68
2022-12-18T10:38:05.705Z,68
2022-12-18T10:40:05.679Z,68
2022-12-18T10:42:05.679Z,68
2022-12-18T10:44:05.682Z,68.1
2022-12-18T10:46:05.683Z,68.1
2022-12-18T10:48:05.688Z,68.1
2022-12-18T10:50:05.680Z,68.2
2022-12-18T10:52:10.282Z,68.2
2022-12-18T10:54:06.193Z,68.2
2022-12-18T10:56:05.687Z,68.1
2022-12-18T10:58:05.645Z,68.1
2022-12-18T11:00:05.651Z,68.2
2022-12-18T11:02:05.739Z,68.1
2022-12-18T11:04:05.680Z,68.1
2022-12-18T11:06:05.691Z,68
2022-12-18T11:08:05.641Z,67.9
2022-12-18T11:10:05.661Z,67.9
2022-12-18T11:12:05.761Z,68
2022-12-18T11:14:05.655Z,67.9
2022-12-18T11:16:05.638Z,67.9
2022-12-18T11:18:05.629Z,67.9
2022-12-18T11:20:05.633Z,67.9
2022-12-18T11:22:05.616Z,67.9
2022-12-18T11:24:05.606Z,67.9
2022-12-18T11:26:05.625Z,67.8
2022-12-18T11:28:05.613Z,67.8
2022-12-18T11:30:05.623Z,67.9
2022-12-18T11:32:05.612Z,67.9
2022-12-18T11:34:27.876Z,67.9
2022-12-18T11:36:05.662Z,67.9
2022-12-18T11:38:06.783Z,67.8
2022-12-18T11:40:05.598Z,67.9
2022-12-18T11:42:05.632Z,67.9
2022-12-18T11:44:05.594Z,67.9
2022-12-18T11:46:05.628Z,67.8
2022-12-18T11:48:05.561Z,67.9
2022-12-18T11:50:05.571Z,67.9
2022-12-18T11:52:06.848Z,67.7
2022-12-18T11:54:06.948Z,67.7
2022-12-18T11:55:00.882Z,67.7
2022-12-18T11:56:05.675Z,67.6
2022-12-18T11:58:07.644Z,67.6
2022-12-18T12:00:05.558Z,67.6
2022-12-18T12:02:10.124Z,67.6
2022-12-18T12:04:10.030Z,67.7
2022-12-18T12:06:05.543Z,67.6
2022-12-18T12:08:11.445Z,67.6
2022-12-18T12:10:06.788Z,67.7
2022-12-18T12:12:06.971Z,67.7
2022-12-18T12:14:05.625Z,67.7
2022-12-18T12:16:05.661Z,67.6
2022-12-18T12:18:09.715Z,67.5
2022-12-18T12:20:05.528Z,67.6
2022-12-18T12:22:05.535Z,67.6
2022-12-18T12:24:09.804Z,67.6
2022-12-18T12:26:05.625Z,67.5
2022-12-18T12:28:05.562Z,67.5
2022-12-18T12:30:05.669Z,67.6
2022-12-18T12:32:05.755Z,67.6
2022-12-18T12:34:05.595Z,67.6
2022-12-18T12:36:05.610Z,67.5
2022-12-18T12:38:06.822Z,67.5
2022-12-18T12:40:20.780Z,67.5
2022-12-18T12:42:05.954Z,67.3
2022-12-18T12:44:05.549Z,67.3
2022-12-18T12:46:05.669Z,67.2
2022-12-18T12:48:05.551Z,67.1
2022-12-18T12:50:05.875Z,67
2022-12-18T12:52:05.556Z,67
2022-12-18T12:54:05.606Z,67.1
2022-12-18T12:56:05.555Z,67
2022-12-18T12:58:08.179Z,67.1
2022-12-18T13:00:05.471Z,67
2022-12-18T13:02:05.690Z,67.1
2022-12-18T13:04:05.526Z,67.1
2022-12-18T13:06:32.535Z,67
2022-12-18T13:08:07.060Z,67.1
2022-12-18T13:10:05.598Z,67
2022-12-18T13:12:06.282Z,66.8
2022-12-18T13:14:05.431Z,66.8
2022-12-18T13:16:05.435Z,66.8
2022-12-18T13:18:09.439Z,66.7
2022-12-18T13:20:07.990Z,66.8
2022-12-18T13:22:05.540Z,66.7
2022-12-18T13:24:05.467Z,66.8
2022-12-18T13:26:05.423Z,66.8
2022-12-18T13:28:05.488Z,66.8
2022-12-18T13:30:05.612Z,66.7
2022-12-18T13:32:05.634Z,66.6
2022-12-18T13:34:25.491Z,66.6
2022-12-18T13:36:08.154Z,66.5
2022-12-18T13:38:05.529Z,66.4
2022-12-18T13:40:05.729Z,66.5
2022-12-18T13:42:08.518Z,66.5
2022-12-18T13:44:08.189Z,66.6
2022-12-18T13:46:06.999Z,66.7
2022-12-18T13:48:34.200Z,66.7
2022-12-18T13:50:05.561Z,66.8
2022-12-18T13:52:05.475Z,67.1
2022-12-18T13:54:08.599Z,66.9
2022-12-18T13:56:05.437Z,66.3
2022-12-18T13:58:05.453Z,66.2
2022-12-18T14:00:05.403Z,66.7
2022-12-18T14:02:05.650Z,66.4
2022-12-18T14:04:08.059Z,66.5
2022-12-18T14:06:07.309Z,66
2022-12-18T14:08:05.406Z,66.4
2022-12-18T14:10:12.445Z,66.1
2022-12-18T14:12:11.338Z,66.3
2022-12-18T14:14:05.416Z,66.3
2022-12-18T14:16:05.406Z,66.3
2022-12-18T14:18:08.127Z,66.3
2022-12-18T14:20:07.982Z,66.4
2022-12-18T14:22:09.662Z,66.3
2022-12-18T14:24:05.362Z,66.3
2022-12-18T15:40:59.670Z,62.4
2022-12-18T15:41:31.361Z,60.9
2022-12-18T15:43:31.393Z,61.9
2022-12-18T15:45:31.375Z,61.8
2022-12-18T15:47:31.391Z,61.2
2022-12-18T15:49:35.828Z,61.3
2022-12-18T15:51:32.697Z,61.4
2022-12-18T15:53:31.304Z,61.2
2022-12-18T15:55:31.334Z,59.9
2022-12-18T15:57:31.281Z,60.5
2022-12-18T15:59:31.360Z,60
2022-12-18T16:01:31.404Z,60.4
2022-12-18T16:03:31.451Z,60.3
2022-12-18T16:05:31.294Z,59.9
2022-12-18T16:07:31.435Z,60.8
2022-12-18T16:09:31.294Z,61
2022-12-18T16:11:31.277Z,60.2
2022-12-18T16:13:31.286Z,60
2022-12-18T16:15:31.389Z,60.6
2022-12-18T16:17:31.293Z,60.7
2022-12-18T16:19:31.395Z,60.1
2022-12-18T16:21:34.038Z,60.5
2022-12-18T16:23:32.697Z,60
2022-12-18T16:25:31.283Z,60
2022-12-18T16:27:31.261Z,59.9
2022-12-18T16:29:31.266Z,60.2
2022-12-18T16:31:31.419Z,60.5
2022-12-18T16:33:31.312Z,60.3
2022-12-18T16:35:31.281Z,60.4
2022-12-18T16:37:31.258Z,58.2
2022-12-18T16:39:31.282Z,57.3
2022-12-18T16:41:31.280Z,58.4
2022-12-18T16:43:31.234Z,58.4
2022-12-18T16:45:31.251Z,58.2
2022-12-18T16:47:31.235Z,58.7
2022-12-18T16:50:01.571Z,58.7
2022-12-18T16:50:01.591Z,100
2022-12-18T16:51:31.278Z,57.7
2022-12-18T16:54:18.969Z,57.5
2022-12-18T16:54:18.973Z,100
2022-12-18T16:55:31.239Z,58.5
2022-12-18T16:57:31.214Z,58.7
2022-12-18T16:59:31.229Z,58
2022-12-18T17:01:31.349Z,58.8
2022-12-18T17:03:31.311Z,57.5
2022-12-18T17:05:31.239Z,58.1
2022-12-18T17:07:31.243Z,58.5
2022-12-18T17:09:31.223Z,57.2
2022-12-18T17:11:31.207Z,58.6
2022-12-18T17:13:31.226Z,57.9
2022-12-18T17:15:31.183Z,57.7
2022-12-18T17:17:31.298Z,56.1
2022-12-18T17:19:31.206Z,57
2022-12-18T17:21:31.223Z,56.2
2022-12-18T17:23:31.193Z,55.9
2022-12-18T17:25:31.175Z,56.2
2022-12-18T17:27:31.194Z,56.1
2022-12-18T17:29:31.183Z,57
2022-12-18T17:31:31.259Z,57.6
2022-12-18T17:33:31.162Z,56.5
2022-12-18T17:35:31.175Z,55.6
2022-12-18T17:37:31.181Z,57.1
2022-12-18T17:39:31.156Z,57.5
2022-12-18T17:41:42.428Z,57.6
2022-12-18T17:43:31.161Z,57.4
2022-12-18T17:45:31.187Z,57.4
2022-12-18T17:47:31.140Z,57.3
2022-12-18T17:49:31.157Z,57.6
2022-12-18T17:51:31.157Z,57.6
2022-12-18T17:53:31.152Z,57.9
2022-12-18T17:55:31.146Z,57.9
2022-12-18T17:57:31.147Z,57.7
2022-12-18T17:59:41.590Z,57.2
2022-12-18T18:01:31.252Z,57.6
2022-12-18T18:03:31.226Z,56.6
2022-12-18T18:05:32.315Z,56.5
2022-12-18T18:07:31.153Z,56.5
2022-12-18T18:09:31.203Z,55.7
2022-12-18T18:11:31.150Z,56.7
2022-12-18T18:13:36.728Z,56
2022-12-18T18:15:31.117Z,56.6
2022-12-18T18:17:31.123Z,56.6
2022-12-18T18:19:31.136Z,56.4
2022-12-18T18:21:31.108Z,56.8
2022-12-18T18:23:31.187Z,57.1
2022-12-18T18:25:31.115Z,57.2
2022-12-18T18:27:35.340Z,56.8
2022-12-18T18:29:31.120Z,56.8
2022-12-18T18:31:31.175Z,57
2022-12-18T18:33:31.142Z,57
2022-12-18T18:35:53.200Z,56.8
2022-12-18T18:37:31.074Z,56.8
2022-12-18T18:39:31.128Z,57
2022-12-18T18:41:31.095Z,56
2022-12-18T18:43:31.086Z,56.7
2022-12-18T18:45:31.157Z,57
2022-12-18T18:47:31.075Z,56.6
2022-12-18T18:49:31.110Z,56.2
2022-12-18T18:51:34.982Z,56.8
2022-12-18T18:53:31.086Z,56.9
2022-12-18T18:55:31.052Z,56.6
2022-12-18T18:57:31.113Z,56.6
2022-12-18T18:59:31.834Z,56.6
2022-12-18T19:01:31.150Z,56.4
2022-12-18T19:03:31.142Z,56.6
2022-12-18T19:05:31.078Z,55.8
2022-12-18T19:07:31.307Z,56.7
2022-12-18T19:09:31.054Z,56.4
2022-12-18T19:11:35.998Z,56.7
2022-12-18T19:13:31.069Z,56.8
2022-12-18T19:15:31.063Z,57
2022-12-18T19:17:31.593Z,56.7
2022-12-18T19:19:31.022Z,55.8
2022-12-18T19:21:31.849Z,56.6
2022-12-18T19:23:31.043Z,56.6
2022-12-18T19:25:40.057Z,56.9
2022-12-18T19:27:31.071Z,56.7
2022-12-18T19:29:31.089Z,56.9
2022-12-18T19:31:35.431Z,57
2022-12-18T19:33:42.707Z,57
2022-12-18T19:35:31.025Z,56.5
2022-12-18T19:37:31.012Z,56.5
2022-12-18T19:39:31.049Z,56.6
2022-12-18T19:41:31.455Z,56.9
2022-12-18T19:43:35.354Z,56.8
2022-12-18T19:45:31.024Z,57.3
2022-12-18T19:47:31.106Z,56.8
2022-12-18T19:49:31.014Z,56.5
2022-12-18T19:51:31.008Z,56.6
2022-12-18T19:53:30.968Z,56.1
2022-12-18T19:55:30.984Z,55.8
2022-12-18T19:57:30.984Z,56.4
2022-12-18T19:59:30.938Z,56.5
2022-12-18T20:01:31.086Z,56.3
2022-12-18T20:03:32.724Z,55.9
2022-12-18T20:05:31.005Z,56.2
2022-12-18T20:07:30.968Z,56.2
2022-12-18T20:09:30.936Z,56.3
2022-12-18T20:11:31.046Z,56.6
2022-12-18T20:13:30.999Z,56.4
2022-12-18T20:15:30.931Z,55
2022-12-18T20:17:30.998Z,55.7
2022-12-18T20:19:31.030Z,55.9
2022-12-18T20:21:31.076Z,56.1
2022-12-18T20:23:30.948Z,56.2
2022-12-18T20:25:30.934Z,56.1
2022-12-18T20:27:30.957Z,55.6
2022-12-18T20:29:30.907Z,55.6
2022-12-18T20:31:31.001Z,55.8
2022-12-18T20:33:30.965Z,55.8
2022-12-18T20:35:30.913Z,55.8
2022-12-18T20:37:30.912Z,55.5
2022-12-18T20:39:30.908Z,55.2
2022-12-18T20:41:37.765Z,55.5
2022-12-18T20:43:30.916Z,55.7
2022-12-18T20:45:30.892Z,55.7
2022-12-18T20:47:30.909Z,55.4
2022-12-18T20:49:30.904Z,55.4
2022-12-18T20:51:30.977Z,55.2
2022-12-18T20:53:30.925Z,54.9
2022-12-18T20:55:30.876Z,55.2
2022-12-18T20:57:30.874Z,54.8
2022-12-18T20:59:30.962Z,55
2022-12-18T21:01:31.083Z,55.2
2022-12-18T21:03:30.970Z,55.2
2022-12-18T21:05:30.961Z,55.2
2022-12-18T21:07:30.928Z,55
2022-12-18T21:09:31.587Z,55.1
2022-12-18T21:11:30.942Z,55.3
2022-12-18T21:13:30.893Z,55.3
2022-12-18T21:15:30.884Z,55.1
2022-12-18T21:17:30.903Z,54.9
2022-12-18T21:19:30.870Z,55.2
2022-12-18T21:21:33.297Z,55.3
2022-12-18T21:23:30.896Z,55.5
2022-12-18T21:25:30.969Z,55.4
2022-12-18T21:27:30.883Z,54.8
2022-12-18T21:29:30.892Z,55
2022-12-18T21:31:30.918Z,54.8
2022-12-18T21:33:30.889Z,55.1
2022-12-18T21:35:30.965Z,54.8
2022-12-18T21:37:30.856Z,54.7
2022-12-18T21:39:30.849Z,55
2022-12-18T21:41:30.864Z,55.2
2022-12-18T21:43:30.888Z,55.1
2022-12-18T21:45:30.842Z,55.2
2022-12-18T21:47:30.840Z,54.6
2022-12-18T21:49:30.842Z,54.9
2022-12-18T21:51:32.278Z,54.4
2022-12-18T21:53:30.925Z,54.9
2022-12-18T21:55:30.838Z,54.6
2022-12-18T21:57:30.869Z,54.3
2022-12-18T21:59:30.824Z,54.6
2022-12-18T22:01:31.519Z,54.7
2022-12-18T22:03:30.897Z,54.5
2022-12-18T22:05:30.831Z,54.5
2022-12-18T22:07:30.863Z,54.3
2022-12-18T22:09:30.838Z,54.3
2022-12-18T22:11:30.828Z,54.5
2022-12-18T22:13:30.808Z,54.6
2022-12-18T22:15:31.021Z,54.5
2022-12-18T22:17:30.838Z,54.3
2022-12-18T22:19:30.839Z,54.3
2022-12-18T22:21:30.834Z,54.4
2022-12-18T22:23:30.828Z,54.3
2022-12-18T22:25:30.808Z,54.1
2022-12-18T22:27:30.847Z,54
2022-12-18T22:29:30.793Z,53.8
2022-12-18T22:31:30.861Z,53.8
2022-12-18T22:33:30.811Z,53.9
2022-12-18T22:35:30.821Z,54
2022-12-18T22:37:30.798Z,53.9
2022-12-18T22:39:30.775Z,54.1
2022-12-18T22:41:30.783Z,54
2022-12-18T22:43:30.785Z,54.1
2022-12-18T22:45:30.777Z,54.2
2022-12-18T22:47:30.901Z,53.9
2022-12-18T22:49:30.782Z,54.2
2022-12-18T22:51:30.809Z,54.2
2022-12-18T22:53:30.775Z,54.2
2022-12-18T22:55:30.793Z,54.2
2022-12-18T22:57:30.750Z,54
2022-12-18T22:59:30.774Z,53.6
2022-12-18T23:01:30.904Z,53.7
2022-12-18T23:03:30.846Z,53.5
2022-12-18T23:05:30.767Z,54
2022-12-18T23:07:31.685Z,53.8
2022-12-18T23:09:30.777Z,54
2022-12-18T23:11:30.751Z,53.9
2022-12-18T23:13:30.789Z,54
2022-12-18T23:15:30.768Z,54.1
2022-12-18T23:17:30.783Z,53.8
2022-12-18T23:19:30.724Z,53.9
2022-12-18T23:21:30.729Z,53.7
2022-12-18T23:23:30.744Z,53.8
2022-12-18T23:25:30.732Z,54
2022-12-18T23:27:30.742Z,53.9
2022-12-18T23:29:30.747Z,54.1
2022-12-18T23:31:30.786Z,54.2
2022-12-18T23:33:30.714Z,53.6
2022-12-18T23:35:30.731Z,54
2022-12-18T23:37:57.307Z,53.9
2022-12-18T23:39:30.717Z,54
2022-12-18T23:41:30.734Z,54.2
2022-12-18T23:43:30.721Z,54.2
2022-12-18T23:45:30.692Z,54.2
2022-12-18T23:47:30.698Z,54
2022-12-18T23:49:30.699Z,54.1
2022-12-18T23:51:30.705Z,54.2
2022-12-18T23:53:30.734Z,54.2
2022-12-18T23:55:30.687Z,54.3
2022-12-18T23:57:30.716Z,54.2
2022-12-18T23:59:30.696Z,54.3
